createdAt,value
2023-02-09T00:00:02.224Z,82.38
2023-02-09T00:02:29.232Z,81.85
2023-02-09T00:04:55.768Z,81.67
2023-02-09T00:07:22.225Z,81.96
2023-02-09T00:09:48.689Z,81.07
2023-02-09T00:12:33.757Z,81.33
2023-02-09T00:15:00.255Z,80.77
2023-02-09T00:17:26.760Z,81.66
2023-02-09T00:19:56.125Z,80.95
2023-02-09T00:22:22.689Z,80.79
2023-02-09T00:24:49.189Z,80.54
2023-02-09T00:27:15.659Z,79.92
2023-02-09T00:29:42.158Z,80.21
2023-02-09T00:32:08.736Z,80.22
2023-02-09T00:34:35.242Z,79.59
2023-02-09T00:37:01.695Z,79.92
2023-02-09T00:39:28.161Z,79.31
2023-02-09T00:42:06.847Z,79.58
2023-02-09T00:44:34.305Z,79.81
2023-02-09T00:47:01.219Z,78.67
2023-02-09T00:49:28.115Z,78.14
2023-02-09T00:51:54.629Z,78.32
2023-02-09T00:54:21.393Z,78.42
2023-02-09T00:56:47.980Z,78.29
2023-02-09T00:59:14.458Z,78.34
2023-02-09T01:01:40.921Z,79.03
2023-02-09T01:04:07.395Z,79.08
2023-02-09T01:06:34.026Z,79.08
2023-02-09T01:09:00.973Z,78.91
2023-02-09T01:11:28.022Z,78.98
2023-02-09T01:13:58.133Z,79.10
2023-02-09T01:16:24.885Z,78.89
2023-02-09T01:18:51.460Z,78.48
2023-02-09T01:21:19.728Z,79.17
2023-02-09T01:23:46.544Z,79.10
2023-02-09T01:26:13.298Z,78.93
2023-02-09T01:28:39.846Z,79.12
2023-02-09T01:31:07.139Z,79.19
2023-02-09T01:33:33.747Z,79.13
2023-02-09T01:36:03.873Z,79.62
2023-02-09T01:38:30.216Z,80.00
2023-02-09T01:40:56.688Z,79.69
2023-02-09T01:43:23.430Z,80.18
2023-02-09T01:45:51.381Z,79.79
2023-02-09T01:48:19.139Z,79.57
2023-02-09T01:50:46.302Z,80.09
2023-02-09T01:53:12.962Z,80.45
2023-02-09T01:55:46.951Z,80.21
2023-02-09T01:58:14.820Z,80.62
2023-02-09T02:00:41.732Z,80.77
2023-02-09T02:03:10.962Z,80.28
2023-02-09T02:05:38.526Z,80.26
2023-02-09T02:08:08.591Z,80.50
2023-02-09T02:10:34.922Z,80.41
2023-02-09T02:13:01.416Z,80.26
2023-02-09T02:15:36.213Z,80.31
2023-02-09T02:21:46.231Z,80.87
2023-02-09T02:24:49.231Z,80.72
2023-02-09T02:27:40.293Z,80.22
2023-02-09T02:30:21.605Z,80.38
2023-02-09T02:33:12.582Z,80.25
2023-02-09T02:35:52.471Z,79.93
2023-02-09T02:38:32.741Z,79.74
2023-02-09T02:41:23.007Z,80.23
2023-02-09T02:44:01.896Z,80.24
2023-02-09T02:46:35.558Z,79.93
2023-02-09T02:49:15.197Z,79.86
2023-02-09T02:51:46.304Z,79.68
2023-02-09T02:54:25.698Z,79.84
2023-02-09T02:56:54.639Z,79.83
2023-02-09T02:59:24.360Z,80.08
2023-02-09T03:02:00.020Z,79.81
2023-02-09T03:04:26.935Z,80.04
2023-02-09T03:06:53.374Z,79.48
2023-02-09T03:09:19.817Z,79.52
2023-02-09T03:11:47.370Z,79.46
2023-02-09T03:14:38.388Z,79.50
2023-02-09T03:17:27.838Z,79.22
2023-02-09T03:20:00.029Z,79.54
2023-02-09T03:22:38.173Z,79.99
2023-02-09T03:25:14.925Z,79.24
2023-02-09T03:27:43.520Z,79.76
2023-02-09T03:30:12.652Z,79.67
2023-02-09T03:32:42.706Z,79.68
2023-02-09T03:35:09.657Z,79.45
2023-02-09T03:37:36.100Z,80.64
2023-02-09T03:40:02.893Z,80.52
2023-02-09T03:42:29.682Z,80.16
2023-02-09T03:44:56.183Z,80.27
2023-02-09T03:47:22.676Z,80.32
2023-02-09T03:49:49.264Z,80.90
2023-02-09T03:52:16.244Z,81.01
2023-02-09T03:54:42.755Z,81.03
2023-02-09T03:57:10.149Z,81.19
2023-02-09T03:59:37.643Z,81.51
2023-02-09T04:02:05.937Z,81.80
2023-02-09T04:04:33.172Z,81.77
2023-02-09T04:07:00.057Z,81.87
2023-02-09T04:09:26.867Z,81.98
2023-02-09T04:11:53.397Z,82.21
2023-02-09T04:14:19.864Z,82.05
2023-02-09T04:16:46.386Z,82.29
2023-02-09T04:19:12.855Z,82.54
2023-02-09T04:21:39.471Z,82.40
2023-02-09T04:24:06.082Z,82.52
2023-02-09T04:26:32.680Z,82.68
2023-02-09T04:28:59.156Z,82.33
2023-02-09T04:31:25.829Z,82.54
2023-02-09T04:33:52.390Z,82.95
2023-02-09T04:36:18.892Z,83.15
2023-02-09T04:38:45.357Z,83.18
2023-02-09T04:41:11.890Z,83.17
2023-02-09T04:43:38.353Z,83.01
2023-02-09T04:46:04.938Z,82.96
2023-02-09T04:48:31.444Z,83.31
2023-02-09T04:50:57.961Z,83.71
2023-02-09T04:53:25.071Z,83.23
2023-02-09T04:55:51.926Z,83.28
2023-02-09T04:58:37.429Z,83.62
2023-02-09T05:01:04.045Z,83.88
2023-02-09T05:03:30.743Z,83.93
2023-02-09T05:06:00.368Z,84.20
2023-02-09T05:08:26.881Z,84.12
2023-02-09T05:10:53.390Z,83.68
2023-02-09T05:13:20.485Z,84.16
2023-02-09T05:15:47.091Z,84.13
2023-02-09T05:18:13.846Z,84.22
2023-02-09T05:20:40.548Z,84.72
2023-02-09T05:23:07.011Z,84.65
2023-02-09T05:25:33.463Z,84.73
2023-02-09T05:27:59.947Z,84.62
2023-02-09T05:30:26.713Z,84.91
2023-02-09T05:32:53.797Z,84.63
2023-02-09T05:35:20.281Z,84.67
2023-02-09T05:37:46.800Z,84.88
2023-02-09T05:40:13.951Z,84.99
2023-02-09T05:42:40.968Z,84.94
2023-02-09T05:45:07.757Z,85.49
2023-02-09T05:47:34.236Z,85.36
2023-02-09T05:50:00.696Z,85.30
2023-02-09T05:52:27.163Z,85.43
2023-02-09T05:54:53.613Z,85.07
2023-02-09T05:57:20.081Z,85.23
2023-02-09T05:59:46.539Z,85.40
2023-02-09T06:02:13.019Z,85.46
2023-02-09T06:04:39.534Z,85.65
2023-02-09T06:07:06.064Z,85.99
2023-02-09T06:09:32.539Z,85.90
2023-02-09T06:11:59.003Z,86.40
2023-02-09T06:14:25.552Z,86.67
2023-02-09T06:16:52.054Z,86.42
2023-02-09T06:19:19.907Z,86.17
2023-02-09T06:21:46.651Z,86.00
2023-02-09T06:24:13.236Z,86.13
2023-02-09T06:26:40.260Z,86.21
2023-02-09T06:29:07.790Z,86.01
2023-02-09T06:31:34.912Z,86.38
2023-02-09T06:34:02.204Z,86.85
2023-02-09T06:36:28.691Z,87.65
2023-02-09T06:38:55.183Z,88.21
2023-02-09T06:41:21.688Z,87.86
2023-02-09T06:43:48.161Z,87.13
2023-02-09T06:46:14.739Z,87.86
2023-02-09T06:48:41.237Z,87.83
2023-02-09T06:51:09.270Z,87.41
2023-02-09T06:53:36.538Z,87.89
2023-02-09T06:56:03.068Z,87.98
2023-02-09T06:58:29.573Z,88.14
2023-02-09T07:00:57.828Z,88.10
2023-02-09T07:03:24.391Z,88.35
2023-02-09T07:05:50.853Z,89.17
2023-02-09T07:08:17.320Z,88.94
2023-02-09T07:10:44.254Z,88.29
2023-02-09T07:13:10.956Z,88.24
2023-02-09T07:15:37.445Z,88.06
2023-02-09T07:18:04.017Z,87.18
2023-02-09T07:20:30.479Z,86.95
2023-02-09T07:22:56.958Z,86.30
2023-02-09T07:25:23.428Z,86.23
2023-02-09T07:27:49.913Z,86.01
2023-02-09T07:30:16.583Z,85.54
2023-02-09T07:32:43.162Z,85.48
2023-02-09T07:35:09.618Z,85.74
2023-02-09T07:37:36.132Z,85.71
2023-02-09T07:40:02.744Z,85.23
2023-02-09T07:42:29.249Z,84.82
2023-02-09T07:44:55.722Z,85.30
2023-02-09T07:47:22.734Z,85.32
2023-02-09T07:49:49.208Z,84.80
2023-02-09T07:52:15.688Z,85.08
2023-02-09T07:54:42.239Z,85.27
2023-02-09T07:57:08.720Z,85.47
2023-02-09T07:59:35.495Z,84.96
2023-02-09T08:02:02.027Z,85.47
2023-02-09T08:04:28.679Z,85.50
2023-02-09T08:06:55.231Z,85.54
2023-02-09T08:09:21.686Z,85.40
2023-02-09T08:11:56.172Z,84.93
2023-02-09T08:14:25.880Z,84.71
2023-02-09T08:17:14.122Z,85.19
2023-02-09T08:19:41.982Z,84.86
2023-02-09T08:22:08.477Z,84.79
2023-02-09T08:24:36.335Z,84.84
2023-02-09T08:27:02.812Z,84.48
2023-02-09T08:29:29.297Z,84.27
2023-02-09T08:31:55.856Z,83.56
2023-02-09T08:34:22.340Z,82.77
2023-02-09T08:36:48.842Z,82.45
2023-02-09T08:39:15.321Z,81.36
2023-02-09T08:41:41.860Z,81.27
2023-02-09T08:44:08.319Z,80.96
2023-02-09T08:46:35.565Z,80.13
2023-02-09T08:49:02.128Z,80.32
2023-02-09T08:51:28.635Z,79.96
2023-02-09T08:53:55.109Z,79.79
2023-02-09T08:56:21.937Z,80.02
2023-02-09T08:58:48.880Z,79.99
2023-02-09T09:01:15.462Z,79.54
2023-02-09T09:03:42.412Z,79.52
2023-02-09T09:06:09.891Z,79.49
2023-02-09T09:08:36.885Z,79.60
2023-02-09T09:11:03.614Z,79.16
2023-02-09T09:13:30.121Z,80.21
2023-02-09T09:15:56.640Z,80.21
2023-02-09T09:18:24.354Z,80.43
2023-02-09T09:20:50.964Z,80.72
2023-02-09T09:23:17.509Z,81.17
2023-02-09T09:25:44.546Z,81.53
2023-02-09T09:28:11.288Z,80.33
2023-02-09T09:30:37.806Z,80.03
2023-02-09T09:33:04.408Z,80.57
2023-02-09T09:35:31.162Z,80.13
2023-02-09T09:37:58.532Z,79.76
2023-02-09T09:40:29.608Z,79.69
2023-02-09T09:42:57.514Z,79.73
2023-02-09T09:45:25.236Z,79.94
2023-02-09T09:47:52.107Z,79.45
2023-02-09T09:50:22.120Z,78.50
2023-02-09T09:52:52.313Z,78.94
2023-02-09T09:55:28.472Z,78.57
2023-02-09T09:57:56.240Z,78.21
2023-02-09T10:00:25.656Z,78.42
2023-02-09T10:02:52.285Z,79.17
2023-02-09T10:05:20.741Z,78.80
2023-02-09T10:08:00.907Z,78.61
2023-02-09T10:10:38.161Z,78.37
2023-02-09T10:13:09.219Z,77.36
2023-02-09T10:15:35.942Z,77.44
2023-02-09T10:18:02.412Z,77.16
2023-02-09T10:20:47.052Z,77.00
2023-02-09T10:23:19.404Z,77.32
2023-02-09T10:25:50.110Z,77.06
2023-02-09T10:28:22.070Z,76.78
2023-02-09T10:30:50.546Z,76.86
2023-02-09T10:33:17.096Z,76.98
2023-02-09T10:35:45.243Z,76.92
2023-02-09T10:38:15.882Z,76.73
2023-02-09T10:40:42.395Z,76.29
2023-02-09T10:43:22.210Z,75.96
2023-02-09T10:46:02.202Z,75.75
2023-02-09T10:48:39.041Z,75.93
2023-02-09T10:51:07.089Z,75.74
2023-02-09T10:53:34.991Z,74.82
2023-02-09T10:56:07.346Z,73.78
2023-02-09T10:58:37.207Z,73.22
2023-02-09T11:01:09.692Z,73.15
2023-02-09T11:03:36.823Z,72.94
2023-02-09T11:06:08.552Z,72.36
2023-02-09T11:08:45.745Z,72.80
2023-02-09T11:11:35.742Z,72.65
2023-02-09T11:14:02.222Z,72.69
2023-02-09T11:17:07.263Z,72.49
2023-02-09T11:19:52.410Z,72.52
2023-02-09T11:22:28.862Z,71.94
2023-02-09T11:25:09.753Z,71.76
2023-02-09T11:27:58.227Z,70.58
2023-02-09T11:30:27.677Z,70.92
2023-02-09T11:32:56.776Z,68.83
2023-02-09T11:35:25.684Z,68.73
2023-02-09T11:38:25.776Z,68.75
2023-02-09T11:40:53.881Z,68.86
2023-02-09T11:43:35.876Z,68.27
2023-02-09T11:46:10.865Z,68.38
2023-02-09T11:48:41.034Z,68.20
2023-02-09T11:51:25.071Z,68.51
2023-02-09T11:53:55.710Z,69.22
2023-02-09T11:56:26.514Z,68.71
2023-02-09T11:59:00.720Z,67.97
2023-02-09T12:02:06.255Z,68.09
2023-02-09T12:04:43.792Z,68.35
2023-02-09T12:07:14.474Z,67.81
2023-02-09T12:10:17.990Z,67.55
2023-02-09T12:12:48.728Z,67.53
2023-02-09T12:15:19.877Z,68.38
2023-02-09T12:17:58.435Z,68.26
2023-02-09T12:20:36.915Z,67.75
2023-02-09T12:23:34.469Z,67.20
2023-02-09T12:26:13.120Z,67.28
2023-02-09T12:28:39.452Z,67.11
2023-02-09T12:31:16.178Z,67.22
2023-02-09T12:33:45.696Z,67.78
2023-02-09T12:36:16.056Z,67.73
2023-02-09T12:39:04.569Z,67.13
2023-02-09T12:41:51.270Z,68.43
2023-02-09T12:44:18.432Z,67.58
2023-02-09T12:46:44.804Z,67.92
2023-02-09T12:49:11.194Z,65.81
2023-02-09T12:51:56.021Z,66.78
2023-02-09T12:54:39.006Z,65.67
2023-02-09T12:57:14.746Z,66.66
2023-02-09T12:59:51.136Z,66.26
2023-02-09T13:02:27.133Z,66.98
2023-02-09T13:05:09.600Z,66.15
2023-02-09T13:07:42.428Z,66.15
2023-02-09T13:10:18.860Z,66.30
2023-02-09T13:13:06.822Z,65.85
2023-02-09T13:15:50.957Z,66.59
2023-02-09T13:18:28.396Z,66.72
2023-02-09T13:21:17.892Z,66.21
2023-02-09T13:24:09.561Z,67.39
2023-02-09T13:26:37.726Z,67.40
2023-02-09T13:29:20.929Z,68.55
2023-02-09T13:32:12.283Z,67.88
2023-02-09T13:34:53.847Z,67.34
2023-02-09T13:37:26.205Z,67.42
2023-02-09T13:39:57.798Z,68.53
2023-02-09T13:42:25.295Z,68.91
2023-02-09T13:44:54.344Z,69.17
2023-02-09T13:47:20.913Z,68.61
2023-02-09T13:50:00.142Z,68.40
2023-02-09T13:52:27.258Z,67.98
2023-02-09T13:54:53.999Z,67.93
2023-02-09T13:57:31.888Z,68.21
2023-02-09T14:00:08.258Z,67.48
2023-02-09T14:02:34.824Z,68.09
2023-02-09T14:05:01.957Z,68.64
2023-02-09T14:07:32.351Z,68.88
2023-02-09T14:10:03.646Z,68.68
2023-02-09T14:12:59.664Z,68.70
2023-02-09T14:15:57.062Z,69.70
2023-02-09T14:18:31.637Z,70.13
2023-02-09T14:21:19.516Z,70.50
2023-02-09T14:23:56.962Z,70.57
2023-02-09T14:26:33.901Z,70.06
2023-02-09T14:29:18.740Z,70.48
2023-02-09T14:31:47.598Z,70.36
2023-02-09T14:34:28.532Z,70.15
2023-02-09T14:36:57.094Z,69.89
2023-02-09T14:39:23.657Z,69.47
2023-02-09T14:42:03.524Z,69.06
2023-02-09T14:44:30.222Z,69.35
2023-02-09T14:46:58.360Z,69.83
2023-02-09T14:49:24.966Z,69.48
2023-02-09T14:52:14.167Z,69.67
2023-02-09T14:54:45.805Z,69.46
2023-02-09T14:57:12.297Z,70.32
2023-02-09T14:59:38.765Z,70.75
2023-02-09T15:02:19.131Z,70.62
2023-02-09T15:04:45.661Z,71.19
2023-02-09T15:07:13.431Z,71.03
2023-02-09T15:09:39.920Z,72.83
2023-02-09T15:12:07.114Z,72.97
2023-02-09T15:14:44.381Z,72.75
2023-02-09T15:17:15.066Z,75.02
2023-02-09T15:19:42.003Z,73.13
2023-02-09T15:22:08.730Z,72.90
2023-02-09T15:24:35.810Z,72.79
2023-02-09T15:27:02.342Z,73.92
2023-02-09T15:29:28.792Z,73.74
2023-02-09T15:31:55.980Z,74.16
2023-02-09T15:34:22.440Z,74.82
2023-02-09T15:36:48.904Z,74.00
2023-02-09T15:39:21.283Z,75.48
2023-02-09T15:42:06.346Z,75.27
2023-02-09T15:44:51.368Z,75.93
2023-02-09T15:47:37.033Z,76.33
2023-02-09T15:50:03.849Z,77.24
2023-02-09T15:52:30.476Z,77.98
2023-02-09T15:54:56.973Z,79.81
2023-02-09T15:57:25.032Z,79.53
2023-02-09T15:59:51.667Z,79.19
2023-02-09T16:02:19.369Z,79.02
2023-02-09T16:04:45.942Z,81.17
2023-02-09T16:07:20.402Z,81.06
2023-02-09T16:09:49.936Z,80.07
2023-02-09T16:12:16.475Z,82.35
2023-02-09T16:14:42.954Z,83.46
2023-02-09T16:17:09.429Z,83.87
2023-02-09T16:19:35.906Z,84.57
2023-02-09T16:22:04.374Z,86.27
2023-02-09T16:24:41.947Z,90.22
2023-02-09T16:27:23.485Z,91.59
2023-02-09T16:29:49.960Z,92.12
2023-02-09T16:32:17.824Z,92.54
2023-02-09T16:34:45.094Z,93.00
2023-02-09T16:37:15.722Z,94.75
2023-02-09T16:39:42.335Z,95.29
2023-02-09T16:42:12.449Z,96.50
2023-02-09T16:44:38.774Z,98.13
2023-02-09T16:47:10.762Z,97.84
2023-02-09T16:49:42.000Z,99.20
2023-02-09T16:52:17.498Z,100.00
2023-02-09T16:54:48.702Z,100.00
2023-02-09T16:57:16.998Z,100.00
2023-02-09T16:59:43.629Z,100.00
2023-02-09T17:02:30.269Z,100.00
2023-02-09T17:04:57.899Z,100.00
2023-02-09T17:07:30.118Z,100.00
2023-02-09T17:09:57.436Z,99.21
2023-02-09T17:12:24.015Z,97.13
2023-02-09T17:14:50.476Z,94.54
2023-02-09T17:17:18.235Z,95.91
2023-02-09T17:19:47.952Z,96.17
2023-02-09T17:22:14.765Z,98.60
2023-02-09T17:24:41.259Z,96.71
2023-02-09T17:27:07.772Z,97.34
2023-02-09T17:29:34.500Z,96.83
2023-02-09T17:32:01.713Z,96.51
2023-02-09T17:34:28.554Z,92.61
2023-02-09T17:36:55.910Z,92.53
2023-02-09T17:39:22.398Z,93.25
2023-02-09T17:41:49.955Z,91.35
2023-02-09T17:44:28.997Z,89.33
2023-02-09T17:46:58.358Z,91.65
2023-02-09T17:49:24.890Z,92.54
2023-02-09T17:51:52.002Z,88.60
2023-02-09T17:54:19.933Z,86.93
2023-02-09T17:56:46.455Z,86.96
2023-02-09T17:59:13.345Z,87.66
2023-02-09T18:01:41.649Z,88.08
2023-02-09T18:04:10.857Z,87.38
2023-02-09T18:06:38.854Z,85.62
2023-02-09T18:09:07.076Z,85.37
2023-02-09T18:11:56.517Z,86.97
2023-02-09T18:14:24.168Z,87.55
2023-02-09T18:16:50.984Z,86.59
2023-02-09T18:19:17.470Z,87.75
2023-02-09T18:21:51.494Z,86.98
2023-02-09T18:24:18.629Z,89.69
2023-02-09T18:26:47.652Z,90.29
2023-02-09T18:29:14.237Z,91.47
2023-02-09T18:31:40.786Z,88.41
2023-02-09T18:34:07.849Z,86.53
2023-02-09T18:36:34.331Z,81.91
2023-02-09T18:39:00.921Z,80.17
2023-02-09T18:41:27.425Z,80.55
2023-02-09T18:43:54.487Z,82.64
2023-02-09T18:46:21.172Z,85.21
2023-02-09T18:48:47.680Z,84.11
2023-02-09T18:51:15.013Z,85.00
2023-02-09T18:53:42.098Z,86.64
2023-02-09T18:56:08.598Z,85.99
2023-02-09T18:58:36.555Z,86.44
2023-02-09T19:01:03.036Z,86.81
2023-02-09T19:03:29.499Z,88.74
2023-02-09T19:05:56.007Z,91.11
2023-02-09T19:08:22.468Z,90.87
2023-02-09T19:10:48.926Z,84.35
2023-02-09T19:13:15.379Z,84.93
2023-02-09T19:15:42.236Z,79.23
2023-02-09T19:18:09.100Z,81.19
2023-02-09T19:20:35.585Z,82.45
2023-02-09T19:23:03.758Z,81.39
2023-02-09T19:25:30.397Z,80.55
2023-02-09T19:27:57.038Z,79.67
2023-02-09T19:30:27.375Z,80.55
2023-02-09T19:32:55.496Z,79.89
2023-02-09T19:35:22.804Z,79.71
2023-02-09T19:37:53.028Z,81.17
2023-02-09T19:40:28.006Z,82.60
2023-02-09T19:42:55.228Z,82.84
2023-02-09T19:45:21.684Z,82.86
2023-02-09T19:47:48.168Z,82.04
2023-02-09T19:50:15.964Z,82.40
2023-02-09T19:52:45.836Z,80.77
2023-02-09T19:55:12.406Z,81.72
2023-02-09T19:57:39.188Z,79.29
2023-02-09T20:00:06.277Z,80.44
2023-02-09T20:02:32.861Z,82.09
2023-02-09T20:04:59.626Z,80.16
2023-02-09T20:07:26.160Z,77.95
2023-02-09T20:09:52.905Z,78.57
2023-02-09T20:12:21.622Z,77.59
2023-02-09T20:14:48.567Z,76.71
2023-02-09T20:17:15.070Z,76.25
2023-02-09T20:19:41.537Z,76.18
2023-02-09T20:22:08.002Z,76.94
2023-02-09T20:24:34.479Z,75.82
2023-02-09T20:27:01.028Z,76.36
2023-02-09T20:29:27.498Z,78.53
2023-02-09T20:31:54.115Z,75.68
2023-02-09T20:34:20.646Z,76.03
2023-02-09T20:36:50.562Z,76.28
2023-02-09T20:39:17.520Z,76.33
2023-02-09T20:42:04.972Z,78.16
2023-02-09T20:44:51.315Z,78.26
2023-02-09T20:47:17.842Z,76.75
2023-02-09T20:49:44.330Z,75.46
2023-02-09T20:52:11.486Z,77.95
2023-02-09T20:54:38.087Z,77.81
2023-02-09T20:57:04.569Z,79.43
2023-02-09T20:59:31.130Z,79.18
2023-02-09T21:01:58.240Z,81.33
2023-02-09T21:04:26.988Z,81.78
2023-02-09T21:06:53.601Z,82.79
2023-02-09T21:09:26.018Z,83.79
2023-02-09T21:11:53.628Z,83.29
2023-02-09T21:14:27.577Z,84.90
2023-02-09T21:16:58.875Z,84.80
2023-02-09T21:19:25.342Z,86.31
2023-02-09T21:21:52.347Z,86.73
2023-02-09T21:24:18.809Z,87.43
2023-02-09T21:26:45.483Z,87.59
2023-02-09T21:29:12.052Z,88.91
2023-02-09T21:31:38.570Z,89.60
2023-02-09T21:34:05.077Z,89.96
2023-02-09T21:36:31.553Z,90.93
2023-02-09T21:38:58.030Z,90.53
2023-02-09T21:41:43.565Z,91.34
2023-02-09T21:44:10.123Z,92.51
2023-02-09T21:46:36.583Z,92.05
2023-02-09T21:49:03.212Z,92.57
2023-02-09T21:51:29.680Z,92.83
2023-02-09T21:53:56.150Z,93.46
2023-02-09T21:56:22.621Z,93.37
2023-02-09T21:58:49.098Z,92.66
2023-02-09T22:01:15.962Z,92.83
2023-02-09T22:03:42.601Z,92.64
2023-02-09T22:06:09.238Z,93.32
2023-02-09T22:08:35.854Z,93.98
2023-02-09T22:11:02.800Z,93.95
2023-02-09T22:13:29.868Z,95.04
2023-02-09T22:15:56.575Z,96.25
2023-02-09T22:18:23.306Z,98.35
2023-02-09T22:20:50.835Z,99.74
2023-02-09T22:23:18.059Z,100.00
2023-02-09T22:25:44.521Z,100.00
2023-02-09T22:28:11.251Z,100.00
2023-02-09T22:30:37.760Z,100.00
2023-02-09T22:33:04.289Z,100.00
2023-02-09T22:35:30.751Z,100.00
2023-02-09T22:37:57.281Z,100.00
2023-02-09T22:40:23.751Z,100.00
2023-02-09T22:42:50.232Z,100.00
2023-02-09T22:45:17.958Z,100.00
2023-02-09T22:47:44.441Z,100.00
2023-02-09T22:50:10.996Z,100.00
2023-02-09T22:52:37.495Z,100.00
2023-02-09T22:55:04.012Z,100.00
2023-02-09T22:57:30.488Z,100.00
2023-02-09T22:59:56.952Z,100.00
2023-02-09T23:02:24.197Z,100.00
2023-02-09T23:04:50.656Z,100.00
2023-02-09T23:07:17.143Z,100.00
2023-02-09T23:09:43.620Z,100.00
2023-02-09T23:12:10.100Z,100.00
2023-02-09T23:14:36.564Z,100.00
2023-02-09T23:17:03.060Z,100.00
2023-02-09T23:19:29.526Z,100.00
2023-02-09T23:21:55.994Z,100.00
2023-02-09T23:24:22.848Z,100.00
2023-02-09T23:26:49.579Z,100.00
2023-02-09T23:29:16.267Z,100.00
2023-02-09T23:31:43.153Z,100.00
2023-02-09T23:34:13.468Z,100.00
2023-02-09T23:36:40.198Z,100.00
2023-02-09T23:39:06.746Z,100.00
2023-02-09T23:41:33.502Z,100.00
2023-02-09T23:44:00.100Z,100.00
2023-02-09T23:46:28.636Z,100.00
2023-02-09T23:48:55.394Z,100.00
2023-02-09T23:51:28.346Z,100.00
2023-02-09T23:53:55.499Z,100.00
2023-02-09T23:56:22.124Z,100.00
2023-02-09T23:58:49.669Z,100.00
